ENSH Airport Information

Runway Information
Runway 01 Length 2812 ft width 0 ft
Elevation 27 ft Threshold 0 ft Heading 0
Runway 19 Length 2812 ft Width 0 ft
Elevation 11 ft Threshold 0 ft Heading 0
Airport Frequencies
Airport Navaids
Type NDB Name Helle Frequency 259 KHZ
Type NDB Name Skrova Frequency 300 KHZ
Airport Weather Information & NOTAM
ADDS - METARS form results

(1931 UTC 11 May 2021)
Data provider http://aviationweather.gov/metar/data/
 
METAR text: ENSH 111920Z 08005KT 9999 FEW015 SCT030 BKN075 05/03 Q1014 RMK WIND 150FT 05006KT
Conditions at: ENSH (SVOLVAER/HELLE , NO) observed 1920 UTC 11 May 2021
Temperature: 5.0°C (41°F)
Dewpoint: 3.0°C (37°F) [RH = 87%]
Pressure (altimeter): 29.94 inches Hg (1014.0 mb)
Winds: from the E (80 degrees) at 6 MPH (5 knots; 2.6 m/s)
Visibility: 6 or more miles (10+ km)
Ceiling: 7500 feet AGL
Clouds: few clouds at 1500 feet AGL
scattered clouds at 3000 feet AGL
broken clouds at 7500 feet AGL
Weather: no significant weather observed at this time

METAR text: ENSH 111850Z 05005KT 9999 FEW015 SCT030 BKN090 05/03 Q1014 RMK WIND 150FT 09005KT
Conditions at: ENSH (SVOLVAER/HELLE , NO) observed 1850 UTC 11 May 2021
Temperature: 5.0°C (41°F)
Dewpoint: 3.0°C (37°F) [RH = 87%]
Pressure (altimeter): 29.94 inches Hg (1014.0 mb)
Winds: from the NE (50 degrees) at 6 MPH (5 knots; 2.6 m/s)
Visibility: 6 or more miles (10+ km)
Ceiling: 9000 feet AGL
Clouds: few clouds at 1500 feet AGL
scattered clouds at 3000 feet AGL
broken clouds at 9000 feet AGL
Weather: no significant weather observed at this time

Forecast for: ENSH (SVOLVAER/HELLE , NO)
Text: TAF ENSH 111400Z 1115/1120 03009KT 9999 FEW012 BKN025
Forecast period: 1500 to 2000 UTC 11 May 2021
Forecast type: FROM: standard forecast or significant change
Winds: from the NNE (30 degrees) at 10 MPH (9 knots; 4.6 m/s)
Visibility: 6 or more miles (10+ km)
Ceiling: 2500 feet AGL
Clouds: few clouds at 1200 feet AGL
broken clouds at 2500 feet AGL
Weather: no significant weather forecast for this period
Text: TEMPO 1115/1120 26010KT
Forecast period: 1500 to 2000 UTC 11 May 2021
Forecast type: TEMPORARY: The following changes expected for less than half the time period
Winds: from the W (260 degrees) at 12 MPH (10 knots; 5.1 m/s)
Visibility: missing
Ceiling: unknown
Clouds: missing
Weather: no significant weather forecast for this period